Meise, Belgium
Current Conditions -  °F | °C
As of 8:50 AM on Friday 24 Oct 2014 (Local Time) from EBBR Reporting Station
Broken Clouds Broken Clouds  
Wind Chill: 52°   Ceiling: 3800
Heat Index: 52°   Visibility: 6mi
Dew Point: 45°   Wind: 12mph
Humidity: 76%   Direction: 200°SSW
Pressure: 30.09"   Gusts: NA
Location:  50.94°N, 4.33°E
Report Text: EBBR 240650Z 20010KT 9999 BKN038 11/07 Q1019 NOSIG
Loading
Personal Weather Stations






























Interactive Weather Map
Tropical Storm Tracking
New forecast layout! Learn more

10-Day Weather Forecast

Advertisements
Track Severe Weather on mobile